createdAt,value
2019-05-02T00:00:56.786Z,1004.27
2019-05-02T00:01:56.783Z,1004.23
2019-05-02T00:02:59.765Z,1004.29
2019-05-02T00:03:56.785Z,1004.25
2019-05-02T00:04:57.109Z,1004.24
2019-05-02T00:05:56.730Z,1004.23
2019-05-02T00:06:56.747Z,1004.28
2019-05-02T00:07:58.503Z,1004.28
2019-05-02T00:08:56.732Z,1004.24
2019-05-02T00:09:56.696Z,1004.22
2019-05-02T00:10:56.680Z,1004.23
2019-05-02T00:11:58.805Z,1004.23
2019-05-02T00:12:56.649Z,1004.24
2019-05-02T00:13:56.678Z,1004.18
2019-05-02T00:15:01.738Z,1004.15
2019-05-02T00:15:57.620Z,1004.19
2019-05-02T00:16:56.619Z,1004.16
2019-05-02T00:17:56.889Z,1004.16
2019-05-02T00:18:56.594Z,1004.13
2019-05-02T00:19:56.597Z,1004.16
2019-05-02T00:20:57.152Z,1004.11
2019-05-02T00:21:56.575Z,1004.13
2019-05-02T00:22:56.633Z,1004.12
2019-05-02T00:23:59.310Z,1004.11
2019-05-02T00:24:57.554Z,1004.07
2019-05-02T00:25:56.506Z,1004.06
2019-05-02T00:27:01.358Z,1004.06
2019-05-02T00:27:57.515Z,1004.08
2019-05-02T00:28:56.474Z,1004.05
2019-05-02T00:29:58.682Z,1004.08
2019-05-02T00:30:56.462Z,1004.10
2019-05-02T00:31:56.442Z,1004.04
2019-05-02T00:32:58.243Z,1004.04
2019-05-02T00:33:56.434Z,1004.07
2019-05-02T00:34:56.428Z,1004.00
2019-05-02T00:35:56.398Z,1004.08
2019-05-02T00:36:56.378Z,1004.03
2019-05-02T00:37:57.361Z,1004.01
2019-05-02T00:38:57.405Z,1004.01
2019-05-02T00:39:56.378Z,1004.03
2019-05-02T00:40:57.489Z,1004.01
2019-05-02T00:41:57.328Z,1004.02
2019-05-02T00:42:58.263Z,1003.99
2019-05-02T00:43:56.309Z,1003.93
2019-05-02T00:44:56.314Z,1004.03
2019-05-02T00:45:59.798Z,1004.02
2019-05-02T00:46:56.272Z,1003.98
2019-05-02T00:47:56.326Z,1003.94
2019-05-02T00:48:59.632Z,1003.97
2019-05-02T00:49:57.275Z,1003.96
2019-05-02T00:50:56.229Z,1003.96
2019-05-02T00:51:56.577Z,1003.92
2019-05-02T00:52:56.215Z,1003.95
2019-05-02T00:53:56.192Z,1003.92
2019-05-02T00:54:58.719Z,1003.91
2019-05-02T00:55:56.190Z,1003.91
2019-05-02T00:56:56.164Z,1003.88
2019-05-02T00:57:56.911Z,1003.88
2019-05-02T00:58:56.141Z,1003.90
2019-05-02T00:59:56.130Z,1003.86
2019-05-02T01:00:56.138Z,1003.89
2019-05-02T01:02:00.087Z,1003.85
2019-05-02T01:02:57.113Z,1003.83
2019-05-02T01:03:56.091Z,1003.82
2019-05-02T01:04:59.253Z,1003.83
2019-05-02T01:05:57.078Z,1003.84
2019-05-02T01:06:56.062Z,1003.82
2019-05-02T01:08:00.756Z,1003.80
2019-05-02T01:08:57.029Z,1003.76
2019-05-02T01:09:56.020Z,1003.74
2019-05-02T01:10:56.860Z,1003.79
2019-05-02T01:11:55.994Z,1003.72
2019-05-02T01:12:55.985Z,1003.79
2019-05-02T01:13:57.762Z,1003.72
2019-05-02T01:14:55.959Z,1003.71
2019-05-02T01:15:55.962Z,1003.71
2019-05-02T01:16:56.279Z,1003.71
2019-05-02T01:17:55.929Z,1003.67
2019-05-02T01:18:55.915Z,1003.68
2019-05-02T01:19:55.901Z,1003.72
2019-05-02T01:20:58.135Z,1003.72
2019-05-02T01:21:56.919Z,1003.68
2019-05-02T01:22:55.868Z,1003.68
2019-05-02T01:23:58.947Z,1003.73
2019-05-02T01:24:56.863Z,1003.69
2019-05-02T01:25:55.841Z,1003.66
2019-05-02T01:26:59.841Z,1003.64
2019-05-02T01:27:56.814Z,1003.62
2019-05-02T01:28:55.808Z,1003.66
2019-05-02T01:29:55.796Z,1003.63
2019-05-02T01:30:55.790Z,1003.64
2019-05-02T01:31:55.902Z,1003.56
2019-05-02T01:32:55.766Z,1003.63
2019-05-02T01:33:55.750Z,1003.59
2019-05-02T01:34:56.394Z,1003.59
2019-05-02T01:35:55.728Z,1003.62
2019-05-02T01:36:55.714Z,1003.57
2019-05-02T01:37:56.132Z,1003.59
2019-05-02T01:38:55.710Z,1003.57
2019-05-02T01:39:55.686Z,1003.51
2019-05-02T01:40:55.672Z,1003.55
2019-05-02T01:42:00.068Z,1003.53
2019-05-02T01:42:56.670Z,1003.52
2019-05-02T01:44:00.142Z,1003.56
2019-05-02T01:44:56.692Z,1003.53
2019-05-02T01:45:55.616Z,1003.53
2019-05-02T01:46:58.713Z,1003.49
2019-05-02T01:47:55.620Z,1003.57
2019-05-02T01:48:55.670Z,1003.52
2019-05-02T01:49:57.329Z,1003.47
2019-05-02T01:50:55.561Z,1003.47
2019-05-02T01:51:55.547Z,1003.51
2019-05-02T01:52:58.677Z,1003.44
2019-05-02T01:53:55.527Z,1003.39
2019-05-02T01:54:55.524Z,1003.37
2019-05-02T01:55:57.277Z,1003.36
2019-05-02T01:56:55.504Z,1003.45
2019-05-02T01:57:55.518Z,1003.34
2019-05-02T01:58:57.787Z,1003.38
2019-05-02T01:59:55.462Z,1003.31
2019-05-02T02:00:55.464Z,1003.35
2019-05-02T02:01:57.897Z,1003.29
2019-05-02T02:02:55.433Z,1003.31
2019-05-02T02:03:55.457Z,1003.30
2019-05-02T02:04:56.944Z,1003.26
2019-05-02T02:05:55.401Z,1003.22
2019-05-02T02:06:55.385Z,1003.28
2019-05-02T02:07:57.203Z,1003.29
2019-05-02T02:08:55.389Z,1003.24
2019-05-02T02:09:55.350Z,1003.29
2019-05-02T02:10:57.868Z,1003.24
2019-05-02T02:11:55.338Z,1003.25
2019-05-02T02:13:03.417Z,1003.21
2019-05-02T02:13:56.333Z,1003.27
2019-05-02T02:14:55.574Z,1003.23
2019-05-02T02:15:55.281Z,1003.20
2019-05-02T02:16:55.278Z,1003.17
2019-05-02T02:17:55.271Z,1003.16
2019-05-02T02:18:59.084Z,1003.16
2019-05-02T02:19:56.252Z,1003.21
2019-05-02T02:20:55.229Z,1003.22
2019-05-02T02:21:57.404Z,1003.21
2019-05-02T02:22:56.198Z,1003.17
2019-05-02T02:23:55.217Z,1003.20
2019-05-02T02:24:55.882Z,1003.19
2019-05-02T02:25:56.168Z,1003.20
2019-05-02T02:26:55.170Z,1003.20
2019-05-02T02:27:59.721Z,1003.11
2019-05-02T02:28:56.134Z,1003.15
2019-05-02T02:29:55.153Z,1003.15
2019-05-02T02:30:58.043Z,1003.15
2019-05-02T02:31:56.120Z,1003.18
2019-05-02T02:33:00.522Z,1003.20
2019-05-02T02:33:56.079Z,1003.24
2019-05-02T02:34:55.098Z,1003.19
2019-05-02T02:35:55.061Z,1003.22
2019-05-02T02:36:55.048Z,1003.14
2019-05-02T02:37:55.718Z,1003.22
2019-05-02T02:38:55.022Z,1003.13
2019-05-02T02:39:56.476Z,1003.13
2019-05-02T02:40:55.028Z,1003.12
2019-05-02T02:41:55.011Z,1003.13
2019-05-02T02:42:54.985Z,1003.11
2019-05-02T02:44:00.495Z,1003.07
2019-05-02T02:44:55.994Z,1003.11
2019-05-02T02:45:58.045Z,1003.15
2019-05-02T02:46:54.941Z,1003.11
2019-05-02T02:47:59.930Z,1003.09
2019-05-02T02:48:55.910Z,1003.12
2019-05-02T02:50:02.499Z,1003.10
2019-05-02T02:50:55.919Z,1003.17
2019-05-02T02:51:58.181Z,1003.13
2019-05-02T02:52:55.878Z,1003.12
2019-05-02T02:54:03.207Z,1003.11
2019-05-02T02:54:55.847Z,1003.14
2019-05-02T02:56:00.746Z,1003.08
2019-05-02T02:56:55.818Z,1003.06
2019-05-02T02:57:58.487Z,1003.07
2019-05-02T02:58:55.810Z,1003.05
2019-05-02T03:00:06.396Z,1003.11
2019-05-02T03:00:55.800Z,1003.11
2019-05-02T03:01:54.770Z,1003.11
2019-05-02T03:02:54.756Z,1003.08
2019-05-02T03:03:54.752Z,1003.07
2019-05-02T03:04:54.734Z,1003.04
2019-05-02T03:05:58.586Z,1003.01
2019-05-02T03:06:55.735Z,1002.97
2019-05-02T03:07:59.668Z,1003.08
2019-05-02T03:08:55.687Z,1003.05
2019-05-02T03:09:59.392Z,1003.04
2019-05-02T03:10:55.670Z,1003.01
2019-05-02T03:11:56.308Z,1003.04
2019-05-02T03:12:55.644Z,1002.99
2019-05-02T03:14:06.099Z,1002.98
2019-05-02T03:14:55.619Z,1003.00
2019-05-02T03:16:00.344Z,1003.00
2019-05-02T03:16:55.616Z,1003.00
2019-05-02T03:18:00.114Z,1003.00
2019-05-02T03:18:55.579Z,1003.04
2019-05-02T03:20:00.950Z,1002.95
2019-05-02T03:20:55.559Z,1002.97
2019-05-02T03:22:00.990Z,1003.00
2019-05-02T03:22:55.532Z,1002.98
2019-05-02T03:24:03.068Z,1002.94
2019-05-02T03:24:55.526Z,1002.97
2019-05-02T03:25:54.500Z,1002.96
2019-05-02T03:26:55.422Z,1002.94
2019-05-02T03:27:54.477Z,1002.99
2019-05-02T03:28:58.707Z,1002.94
2019-05-02T03:29:55.452Z,1002.92
2019-05-02T03:30:54.446Z,1002.99
2019-05-02T03:32:11.790Z,1002.96
2019-05-02T03:33:09.828Z,1003.02
2019-05-02T03:34:00.332Z,1002.90
2019-05-02T03:34:55.402Z,1002.95
2019-05-02T03:35:54.415Z,1002.95
2019-05-02T03:36:54.383Z,1002.93
2019-05-02T03:37:54.386Z,1002.97
2019-05-02T03:38:54.354Z,1002.94
2019-05-02T03:40:00.251Z,1002.93
2019-05-02T03:40:55.334Z,1002.90
2019-05-02T03:41:55.446Z,1002.92
2019-05-02T03:42:55.333Z,1002.87
2019-05-02T03:44:09.928Z,1002.97
2019-05-02T03:44:58.477Z,1002.90
2019-05-02T03:45:54.275Z,1002.92
2019-05-02T03:47:02.042Z,1002.86
2019-05-02T03:47:55.279Z,1002.87
2019-05-02T03:49:06.250Z,1002.87
2019-05-02T03:49:55.235Z,1002.92
2019-05-02T03:50:54.224Z,1002.95
2019-05-02T03:51:56.019Z,1002.91
2019-05-02T03:52:55.215Z,1002.90
2019-05-02T03:54:06.088Z,1002.89
2019-05-02T03:54:55.204Z,1002.90
2019-05-02T03:55:54.171Z,1002.90
2019-05-02T03:56:54.158Z,1002.82
2019-05-02T03:57:54.154Z,1002.86
2019-05-02T03:58:56.487Z,1002.87
2019-05-02T03:59:54.118Z,1002.87
2019-05-02T04:01:00.258Z,1002.80
2019-05-02T04:01:55.103Z,1002.85
2019-05-02T04:03:00.825Z,1002.82
2019-05-02T04:03:55.086Z,1002.86
2019-05-02T04:05:00.024Z,1002.89
2019-05-02T04:05:55.059Z,1002.90
2019-05-02T04:06:54.847Z,1002.91
2019-05-02T04:07:55.051Z,1002.87
2019-05-02T04:08:59.948Z,1002.93
2019-05-02T04:09:55.008Z,1002.85
2019-05-02T04:10:59.405Z,1002.88
2019-05-02T04:11:54.988Z,1002.85
2019-05-02T04:12:58.325Z,1002.91
2019-05-02T04:13:54.989Z,1002.85
2019-05-02T04:14:56.026Z,1002.87
2019-05-02T04:15:53.944Z,1002.86
2019-05-02T04:16:55.110Z,1002.82
2019-05-02T04:17:53.945Z,1002.91
2019-05-02T04:18:55.632Z,1002.85
2019-05-02T04:19:53.927Z,1002.87
2019-05-02T04:20:53.898Z,1002.91
2019-05-02T04:21:54.955Z,1002.93
2019-05-02T04:22:53.865Z,1002.91
2019-05-02T04:23:54.056Z,1002.92
2019-05-02T04:24:54.711Z,1002.97
2019-05-02T04:25:53.828Z,1002.94
2019-05-02T04:26:56.319Z,1002.92
2019-05-02T04:27:53.809Z,1003.02
2019-05-02T04:28:53.910Z,1002.90
2019-05-02T04:29:53.782Z,1002.90
2019-05-02T04:30:54.018Z,1002.90
2019-05-02T04:31:53.764Z,1002.91
2019-05-02T04:32:56.000Z,1002.89
2019-05-02T04:33:53.759Z,1002.91
2019-05-02T04:34:55.310Z,1002.93
2019-05-02T04:35:53.720Z,1002.90
2019-05-02T04:37:00.742Z,1002.95
2019-05-02T04:37:54.704Z,1002.98
2019-05-02T04:38:53.701Z,1002.99
2019-05-02T04:39:57.873Z,1003.02
2019-05-02T04:40:54.665Z,1002.89
2019-05-02T04:41:53.650Z,1002.97
2019-05-02T04:43:01.954Z,1002.98
2019-05-02T04:43:57.807Z,1002.94
2019-05-02T04:45:13.819Z,1002.97
2019-05-02T04:45:57.412Z,1002.98
2019-05-02T04:46:59.904Z,1003.06
2019-05-02T04:48:00.924Z,1003.00
2019-05-02T04:48:54.616Z,1003.00
2019-05-02T04:49:53.566Z,1003.02
2019-05-02T04:50:59.706Z,1003.02
2019-05-02T04:52:04.704Z,1003.06
2019-05-02T04:52:54.555Z,1003.00
2019-05-02T04:53:53.541Z,1003.04
2019-05-02T04:55:00.498Z,1003.04
2019-05-02T04:56:01.914Z,1003.01
2019-05-02T04:56:55.392Z,1003.03
2019-05-02T04:57:53.481Z,1002.99
2019-05-02T04:58:53.494Z,1002.96
2019-05-02T05:00:04.986Z,1002.94
2019-05-02T05:00:59.232Z,1002.95
2019-05-02T05:01:57.505Z,1002.94
2019-05-02T05:02:54.416Z,1003.04
2019-05-02T05:03:58.369Z,1003.05
2019-05-02T05:04:54.400Z,1002.96
2019-05-02T05:05:53.391Z,1002.82
2019-05-02T05:06:58.113Z,1002.90
2019-05-02T05:07:54.363Z,1002.99
2019-05-02T05:08:53.362Z,1002.89
2019-05-02T05:09:58.176Z,1002.85
2019-05-02T05:10:54.328Z,1002.93
2019-05-02T05:11:53.886Z,1002.90
2019-05-02T05:12:53.302Z,1002.90
2019-05-02T05:13:57.587Z,1002.98
2019-05-02T05:14:54.277Z,1002.96
2019-05-02T05:15:53.272Z,1002.93
2019-05-02T05:16:55.726Z,1002.92
2019-05-02T05:17:53.250Z,1002.94
2019-05-02T05:18:53.360Z,1002.95
2019-05-02T05:19:53.229Z,1002.90
2019-05-02T05:20:54.287Z,1002.90
2019-05-02T05:21:58.804Z,1002.89
2019-05-02T05:22:54.191Z,1002.90
2019-05-02T05:23:59.628Z,1002.93
2019-05-02T05:24:54.191Z,1002.93
2019-05-02T05:25:55.680Z,1002.95
2019-05-02T05:26:54.163Z,1002.93
2019-05-02T05:27:58.795Z,1002.90
2019-05-02T05:28:54.146Z,1002.93
2019-05-02T05:29:53.789Z,1002.87
2019-05-02T05:30:54.100Z,1002.98
2019-05-02T05:31:55.075Z,1002.95
2019-05-02T05:32:54.080Z,1002.94
2019-05-02T05:33:53.066Z,1003.02
2019-05-02T05:34:53.555Z,1003.03
2019-05-02T05:35:53.049Z,1002.95
2019-05-02T05:36:53.042Z,1003.07
2019-05-02T05:37:53.449Z,1003.03
2019-05-02T05:38:53.021Z,1002.99
2019-05-02T05:39:53.029Z,1002.97
2019-05-02T05:40:52.997Z,1003.02
2019-05-02T05:41:52.983Z,1003.09
2019-05-02T05:42:52.972Z,1003.11
2019-05-02T05:43:53.656Z,1003.06
2019-05-02T05:44:52.967Z,1003.07
2019-05-02T05:45:56.601Z,1003.10
2019-05-02T05:46:53.930Z,1003.08
2019-05-02T05:47:57.484Z,1003.05
2019-05-02T05:48:53.904Z,1003.04
2019-05-02T05:49:57.665Z,1003.07
2019-05-02T05:50:53.882Z,1003.09
2019-05-02T05:51:54.401Z,1003.04
2019-05-02T05:52:53.858Z,1003.06
2019-05-02T05:53:59.097Z,1003.01
2019-05-02T05:54:53.856Z,1003.05
2019-05-02T05:55:53.649Z,1003.12
2019-05-02T05:56:53.812Z,1003.11
2019-05-02T05:57:59.928Z,1003.10
2019-05-02T05:58:53.807Z,1003.08
2019-05-02T05:59:52.804Z,1003.08
2019-05-02T06:00:55.343Z,1003.05
2019-05-02T06:01:52.757Z,1003.01
2019-05-02T06:02:56.792Z,1002.99
2019-05-02T06:03:53.736Z,1002.94
2019-05-02T06:04:55.176Z,1003.00
2019-05-02T06:05:53.708Z,1002.97
2019-05-02T06:06:58.349Z,1002.91
2019-05-02T06:07:53.696Z,1002.92
2019-05-02T06:08:54.036Z,1002.98
2019-05-02T06:09:52.689Z,1002.96
2019-05-02T06:10:52.660Z,1002.96
2019-05-02T06:11:55.440Z,1002.93
2019-05-02T06:12:52.633Z,1002.92
2019-05-02T06:13:52.626Z,1002.98
2019-05-02T06:14:56.338Z,1002.89
2019-05-02T06:16:02.229Z,1002.92
2019-05-02T06:16:53.587Z,1002.97
2019-05-02T06:17:52.580Z,1002.91
2019-05-02T06:18:52.570Z,1002.93
2019-05-02T06:19:53.582Z,1002.91
2019-05-02T06:20:52.567Z,1002.83
2019-05-02T06:21:52.533Z,1002.79
2019-05-02T06:22:55.033Z,1002.81
2019-05-02T06:23:53.507Z,1002.84
2019-05-02T06:24:52.505Z,1002.81
2019-05-02T06:25:52.515Z,1002.83
2019-05-02T06:26:52.483Z,1002.85
2019-05-02T06:27:52.468Z,1002.77
2019-05-02T06:28:52.449Z,1002.73
2019-05-02T06:29:56.075Z,1002.78
2019-05-02T06:30:52.470Z,1002.74
2019-05-02T06:31:52.424Z,1002.79
2019-05-02T06:32:54.917Z,1002.71
2019-05-02T06:33:52.401Z,1002.76
2019-05-02T06:34:52.387Z,1002.74
2019-05-02T06:36:01.022Z,1002.70
2019-05-02T06:36:53.365Z,1002.73
2019-05-02T06:37:52.363Z,1002.70
2019-05-02T06:38:56.458Z,1002.67
2019-05-02T06:39:53.336Z,1002.67
2019-05-02T06:40:52.346Z,1002.66
2019-05-02T06:41:57.472Z,1002.61
2019-05-02T06:42:53.305Z,1002.63
2019-05-02T06:43:52.289Z,1002.62
2019-05-02T06:44:54.925Z,1002.66
2019-05-02T06:45:53.288Z,1002.58
2019-05-02T06:46:52.258Z,1002.60
2019-05-02T06:47:52.250Z,1002.61
2019-05-02T06:48:52.555Z,1002.62
2019-05-02T06:49:56.096Z,1002.58
2019-05-02T06:50:53.243Z,1002.65
2019-05-02T06:51:56.259Z,1002.62
2019-05-02T06:52:53.186Z,1002.65
2019-05-02T06:53:52.176Z,1002.59
2019-05-02T06:54:54.105Z,1002.63
2019-05-02T06:55:53.155Z,1002.62
2019-05-02T06:56:52.158Z,1002.58
2019-05-02T06:57:57.114Z,1002.64
2019-05-02T06:58:53.118Z,1002.66
2019-05-02T06:59:54.662Z,1002.64
2019-05-02T07:00:58.214Z,1002.64
2019-05-02T07:01:57.431Z,1002.65
2019-05-02T07:02:53.076Z,1002.67
2019-05-02T07:03:52.073Z,1002.58
2019-05-02T07:04:54.695Z,1002.65
2019-05-02T07:05:52.050Z,1002.62
2019-05-02T07:06:58.645Z,1002.62
2019-05-02T07:07:53.047Z,1002.60
2019-05-02T07:08:52.034Z,1002.67
2019-05-02T07:09:52.006Z,1002.62
2019-05-02T07:10:56.123Z,1002.65
2019-05-02T07:11:57.260Z,1002.63
2019-05-02T07:13:02.242Z,1002.68
2019-05-02T07:13:52.951Z,1002.71
2019-05-02T07:14:56.016Z,1002.68
2019-05-02T07:15:52.933Z,1002.70
2019-05-02T07:16:54.602Z,1002.71
2019-05-02T07:17:51.935Z,1002.70
2019-05-02T07:18:51.898Z,1002.78
2019-05-02T07:19:51.890Z,1002.79
2019-05-02T07:20:51.880Z,1002.78
2019-05-02T07:21:53.190Z,1002.74
2019-05-02T07:22:52.877Z,1002.69
2019-05-02T07:23:53.663Z,1002.74
2019-05-02T07:24:51.839Z,1002.70
2019-05-02T07:25:51.831Z,1002.70
2019-05-02T07:26:52.154Z,1002.71
2019-05-02T07:27:51.831Z,1002.81
2019-05-02T07:28:51.802Z,1002.79
2019-05-02T07:29:57.132Z,1002.76
2019-05-02T07:30:54.632Z,1002.72
2019-05-02T07:31:53.511Z,1002.73
2019-05-02T07:32:51.747Z,1002.68
2019-05-02T07:33:51.762Z,1002.68
2019-05-02T07:34:51.718Z,1002.69
2019-05-02T07:35:55.213Z,1002.77
2019-05-02T07:36:52.718Z,1002.77
2019-05-02T07:37:51.718Z,1002.73
2019-05-02T07:38:51.690Z,1002.73
2019-05-02T07:39:51.693Z,1002.75
2019-05-02T07:40:52.959Z,1002.80
2019-05-02T07:41:51.706Z,1002.83
2019-05-02T07:42:51.763Z,1002.74
2019-05-02T07:43:52.175Z,1002.80
2019-05-02T07:44:51.743Z,1002.79
2019-05-02T07:45:51.740Z,1002.76
2019-05-02T07:46:52.376Z,1002.81
2019-05-02T07:47:52.573Z,1002.82
2019-05-02T07:48:54.451Z,1002.79
2019-05-02T07:49:51.555Z,1002.84
2019-05-02T07:50:51.917Z,1002.79
2019-05-02T07:51:52.238Z,1002.84
2019-05-02T07:52:52.530Z,1002.78
2019-05-02T07:53:51.511Z,1002.76
2019-05-02T07:54:51.530Z,1002.73
2019-05-02T07:55:51.494Z,1002.79
2019-05-02T07:56:53.296Z,1002.78
2019-05-02T07:57:51.476Z,1002.76
2019-05-02T07:58:51.463Z,1002.76
2019-05-02T07:59:54.992Z,1002.72
2019-05-02T08:00:52.430Z,1002.73
2019-05-02T08:01:51.418Z,1002.67
2019-05-02T08:02:51.427Z,1002.71
2019-05-02T08:03:51.403Z,1002.73
2019-05-02T08:04:51.406Z,1002.70
2019-05-02T08:05:54.406Z,1002.72
2019-05-02T08:06:52.366Z,1002.67
2019-05-02T08:07:53.268Z,1002.69
2019-05-02T08:08:51.346Z,1002.74
2019-05-02T08:09:51.349Z,1002.71
2019-05-02T08:10:53.866Z,1002.71
2019-05-02T08:11:52.308Z,1002.68
2019-05-02T08:12:51.299Z,1002.67
2019-05-02T08:13:55.681Z,1002.75
2019-05-02T08:14:52.298Z,1002.66
2019-05-02T08:15:52.418Z,1002.65
2019-05-02T08:17:04.409Z,1002.63
2019-05-02T08:17:53.758Z,1002.69
2019-05-02T08:18:51.241Z,1002.67
2019-05-02T08:19:51.216Z,1002.67
2019-05-02T08:20:56.018Z,1002.65
2019-05-02T08:21:52.202Z,1002.67
2019-05-02T08:22:51.183Z,1002.65
2019-05-02T08:23:51.171Z,1002.61
2019-05-02T08:24:51.162Z,1002.65
2019-05-02T08:25:51.171Z,1002.57
2019-05-02T08:26:53.458Z,1002.55
2019-05-02T08:27:52.130Z,1002.53
2019-05-02T08:28:51.857Z,1002.53
2019-05-02T08:29:51.111Z,1002.57
2019-05-02T08:30:51.160Z,1002.51
2019-05-02T08:31:51.087Z,1002.57
2019-05-02T08:32:51.098Z,1002.58
2019-05-02T08:33:51.073Z,1002.57
2019-05-02T08:34:51.958Z,1002.55
2019-05-02T08:35:51.038Z,1002.59
2019-05-02T08:36:51.056Z,1002.56
2019-05-02T08:37:51.021Z,1002.60
2019-05-02T08:38:53.673Z,1002.57
2019-05-02T08:39:51.008Z,1002.57
2019-05-02T08:40:50.983Z,1002.59
2019-05-02T08:41:51.361Z,1002.60
2019-05-02T08:42:50.965Z,1002.61
2019-05-02T08:43:50.955Z,1002.68
2019-05-02T08:45:52.033Z,1002.64
2019-05-02T08:46:51.510Z,1002.64
2019-05-02T08:48:11.908Z,1002.62
2019-05-02T08:48:50.970Z,1002.62
2019-05-02T08:49:54.778Z,1002.59
2019-05-02T08:50:51.878Z,1002.64
2019-05-02T08:51:50.882Z,1002.64
2019-05-02T08:52:50.856Z,1002.64
2019-05-02T08:53:52.006Z,1002.62
2019-05-02T08:54:51.826Z,1002.62
2019-05-02T08:55:50.819Z,1002.61
2019-05-02T08:56:53.209Z,1002.61
2019-05-02T08:57:51.799Z,1002.61
2019-05-02T08:58:51.156Z,1002.57
2019-05-02T08:59:50.777Z,1002.60
2019-05-02T09:00:50.764Z,1002.54
2019-05-02T09:01:51.460Z,1002.59
2019-05-02T09:02:50.760Z,1002.59
2019-05-02T09:03:54.982Z,1002.56
2019-05-02T09:04:58.327Z,1002.59
2019-05-02T09:05:51.710Z,1002.60
2019-05-02T09:06:53.205Z,1002.59
2019-05-02T09:07:51.709Z,1002.65
2019-05-02T09:08:51.257Z,1002.54
2019-05-02T09:09:50.666Z,1002.57
2019-05-02T09:10:50.653Z,1002.62
2019-05-02T09:12:03.259Z,1002.54
2019-05-02T09:12:52.132Z,1002.52
2019-05-02T09:13:52.474Z,1002.56
2019-05-02T09:14:52.074Z,1002.59
2019-05-02T09:15:53.619Z,1002.59
2019-05-02T09:16:52.351Z,1002.58
2019-05-02T09:17:56.067Z,1002.59
2019-05-02T09:18:54.108Z,1002.65
2019-05-02T09:20:00.430Z,1002.56
2019-05-02T09:20:55.390Z,1002.59
2019-05-02T09:21:52.539Z,1002.68
2019-05-02T09:22:54.116Z,1002.65
2019-05-02T09:23:51.869Z,1002.64
2019-05-02T09:24:52.028Z,1002.57
2019-05-02T09:25:51.924Z,1002.60
2019-05-02T09:26:51.936Z,1002.63
2019-05-02T09:27:52.478Z,1002.58
2019-05-02T09:28:51.709Z,1002.63
2019-05-02T09:29:51.907Z,1002.58
2019-05-02T09:30:52.296Z,1002.62
2019-05-02T09:31:52.516Z,1002.56
2019-05-02T09:32:52.150Z,1002.61
2019-05-02T09:33:52.032Z,1002.58
2019-05-02T09:34:51.846Z,1002.56
2019-05-02T09:35:51.576Z,1002.55
2019-05-02T09:36:50.373Z,1002.59
2019-05-02T09:37:52.214Z,1002.55
2019-05-02T09:38:56.002Z,1002.54
2019-05-02T09:39:52.485Z,1002.57
2019-05-02T09:40:54.616Z,1002.54
2019-05-02T09:41:52.729Z,1002.59
2019-05-02T09:42:53.531Z,1002.50
2019-05-02T09:43:52.379Z,1002.56
2019-05-02T09:44:55.941Z,1002.49
2019-05-02T09:45:51.990Z,1002.51
2019-05-02T09:46:53.089Z,1002.47
2019-05-02T09:47:59.552Z,1002.53
2019-05-02T09:48:51.979Z,1002.54
2019-05-02T09:49:52.561Z,1002.49
2019-05-02T09:50:50.205Z,1002.57
2019-05-02T09:51:58.371Z,1002.42
2019-05-02T09:52:52.414Z,1002.45
2019-05-02T09:53:52.218Z,1002.51
2019-05-02T09:54:51.851Z,1002.48
2019-05-02T09:55:55.134Z,1002.48
2019-05-02T09:56:52.391Z,1002.42
2019-05-02T09:57:51.946Z,1002.50
2019-05-02T09:58:55.304Z,1002.45
2019-05-02T09:59:55.693Z,1002.47
2019-05-02T10:00:52.335Z,1002.45
2019-05-02T10:01:50.092Z,1002.42
2019-05-02T10:02:52.153Z,1002.44
2019-05-02T10:03:51.863Z,1002.37
2019-05-02T10:04:50.058Z,1002.42
2019-05-02T10:05:52.167Z,1002.41
2019-05-02T10:06:52.256Z,1002.42
2019-05-02T10:07:50.025Z,1002.45
2019-05-02T10:08:52.011Z,1002.36
2019-05-02T10:09:51.850Z,1002.41
2019-05-02T10:10:52.042Z,1002.32
2019-05-02T10:11:49.976Z,1002.41
2019-05-02T10:12:52.039Z,1002.41
2019-05-02T10:13:51.727Z,1002.35
2019-05-02T10:14:49.964Z,1002.39
2019-05-02T10:15:49.927Z,1002.44
2019-05-02T10:16:49.936Z,1002.38
2019-05-02T10:17:51.780Z,1002.44
2019-05-02T10:18:52.140Z,1002.32
2019-05-02T10:19:54.917Z,1002.31
2019-05-02T10:20:52.404Z,1002.30
2019-05-02T10:21:52.441Z,1002.29
2019-05-02T10:22:52.961Z,1002.38
2019-05-02T10:23:51.789Z,1002.33
2019-05-02T10:24:51.985Z,1002.30
2019-05-02T10:25:51.956Z,1002.27
2019-05-02T10:26:49.806Z,1002.28
2019-05-02T10:27:49.799Z,1002.29
2019-05-02T10:28:51.213Z,1002.29
2019-05-02T10:29:49.794Z,1002.28
2019-05-02T10:30:52.516Z,1002.28
2019-05-02T10:31:52.624Z,1002.29
2019-05-02T10:32:55.567Z,1002.30
2019-05-02T10:33:52.755Z,1002.23
2019-05-02T10:34:55.257Z,1002.20
2019-05-02T10:35:52.449Z,1002.24
2019-05-02T10:36:54.136Z,1002.25
2019-05-02T10:37:52.115Z,1002.25
2019-05-02T10:38:54.976Z,1002.31
2019-05-02T10:39:52.526Z,1002.28
2019-05-02T10:40:54.775Z,1002.32
2019-05-02T10:41:52.505Z,1002.24
2019-05-02T10:42:49.632Z,1002.32
2019-05-02T10:43:51.961Z,1002.31
2019-05-02T10:44:52.134Z,1002.27
2019-05-02T10:45:52.796Z,1002.28
2019-05-02T10:46:52.302Z,1002.28
2019-05-02T10:47:49.562Z,1002.31
2019-05-02T10:48:49.577Z,1002.33
2019-05-02T10:49:49.583Z,1002.31
2019-05-02T10:50:49.549Z,1002.33
2019-05-02T10:51:51.867Z,1002.31
2019-05-02T10:52:49.535Z,1002.32
2019-05-02T10:53:52.703Z,1002.28
2019-05-02T10:54:52.692Z,1002.26
2019-05-02T10:55:49.483Z,1002.31
2019-05-02T10:56:49.474Z,1002.30
2019-05-02T10:57:49.462Z,1002.33
2019-05-02T10:58:49.441Z,1002.35
2019-05-02T10:59:49.436Z,1002.34
2019-05-02T11:00:49.440Z,1002.28
2019-05-02T11:01:49.426Z,1002.31
2019-05-02T11:02:49.409Z,1002.30
2019-05-02T11:03:51.554Z,1002.35
2019-05-02T11:04:49.376Z,1002.32
2019-05-02T11:05:49.386Z,1002.30
2019-05-02T11:06:49.370Z,1002.33
2019-05-02T11:07:49.349Z,1002.32
2019-05-02T11:08:49.344Z,1002.31
2019-05-02T11:09:49.350Z,1002.25
2019-05-02T11:10:49.336Z,1002.29
2019-05-02T11:11:49.306Z,1002.27
2019-05-02T11:12:49.286Z,1002.34
2019-05-02T11:13:53.329Z,1002.32
2019-05-02T11:14:51.650Z,1002.37
2019-05-02T11:15:49.291Z,1002.33
2019-05-02T11:16:49.246Z,1002.27
2019-05-02T11:17:49.230Z,1002.30
2019-05-02T11:18:49.230Z,1002.25
2019-05-02T11:19:49.238Z,1002.32
2019-05-02T11:20:49.221Z,1002.27
2019-05-02T11:21:56.268Z,1002.35
2019-05-02T11:22:52.606Z,1002.28
2019-05-02T11:23:49.264Z,1002.30
2019-05-02T11:24:49.175Z,1002.26
2019-05-02T11:25:49.165Z,1002.34
2019-05-02T11:26:49.138Z,1002.33
2019-05-02T11:27:49.126Z,1002.32
2019-05-02T11:28:49.121Z,1002.29
2019-05-02T11:29:49.110Z,1002.33
2019-05-02T11:30:49.155Z,1002.28
2019-05-02T11:31:49.122Z,1002.30
2019-05-02T11:32:49.092Z,1002.33
2019-05-02T11:33:49.072Z,1002.25
2019-05-02T11:34:49.078Z,1002.24
2019-05-02T11:35:51.130Z,1002.29
2019-05-02T11:36:49.049Z,1002.25
2019-05-02T11:37:49.048Z,1002.28
2019-05-02T11:38:55.172Z,1002.31
2019-05-02T11:39:54.211Z,1002.28
2019-05-02T11:40:51.959Z,1002.35
2019-05-02T11:41:48.964Z,1002.28
2019-05-02T11:42:49.002Z,1002.27
2019-05-02T11:43:48.964Z,1002.29
2019-05-02T11:44:48.981Z,1002.26
2019-05-02T11:45:49.093Z,1002.31
2019-05-02T11:46:48.923Z,1002.26
2019-05-02T11:47:48.909Z,1002.27
2019-05-02T11:48:56.422Z,1002.25
2019-05-02T11:49:52.156Z,1002.27
2019-05-02T11:50:52.109Z,1002.27
2019-05-02T11:51:52.590Z,1002.27
2019-05-02T11:52:52.118Z,1002.33
2019-05-02T11:53:48.853Z,1002.30
2019-05-02T11:54:48.973Z,1002.24
2019-05-02T11:55:48.858Z,1002.23
2019-05-02T11:56:50.426Z,1002.26
2019-05-02T11:57:48.819Z,1002.29
2019-05-02T11:58:50.271Z,1002.21
2019-05-02T11:59:48.771Z,1002.25
2019-05-02T12:00:49.736Z,1002.27
2019-05-02T12:01:57.660Z,1002.20
2019-05-02T12:02:54.208Z,1002.25
2019-05-02T12:03:52.231Z,1002.23
2019-05-02T12:04:53.915Z,1002.19
2019-05-02T12:05:48.732Z,1002.20
2019-05-02T12:06:49.934Z,1002.24